sensor_id;sensor_type;location;lat;lon;timestamp;P1;durP1;ratioP1;P2;durP2;ratioP2
51927;SDS011;37953;52.806;18.270;2022-08-01T00:02:15;4.57;;;2.13;;
51927;SDS011;37953;52.806;18.270;2022-08-01T00:04:41;4.93;;;2.13;;
51927;SDS011;37953;52.806;18.270;2022-08-01T00:07:07;5.35;;;2.08;;
51927;SDS011;37953;52.806;18.270;2022-08-01T00:09:34;3.35;;;1.95;;
51927;SDS011;37953;52.806;18.270;2022-08-01T00:12:00;7.00;;;2.30;;
51927;SDS011;37953;52.806;18.270;2022-08-01T00:14:26;5.00;;;2.38;;
51927;SDS011;37953;52.806;18.270;2022-08-01T00:16:52;3.58;;;2.20;;
51927;SDS011;37953;52.806;18.270;2022-08-01T00:19:18;3.05;;;2.00;;
51927;SDS011;37953;52.806;18.270;2022-08-01T00:21:47;3.70;;;2.03;;
51927;SDS011;37953;52.806;18.270;2022-08-01T00:24:13;8.90;;;2.08;;
51927;SDS011;37953;52.806;18.270;2022-08-01T00:26:39;4.57;;;2.03;;
51927;SDS011;37953;52.806;18.270;2022-08-01T00:29:12;4.00;;;2.10;;
51927;SDS011;37953;52.806;18.270;2022-08-01T00:31:38;4.45;;;2.10;;
51927;SDS011;37953;52.806;18.270;2022-08-01T00:34:04;3.88;;;2.30;;
51927;SDS011;37953;52.806;18.270;2022-08-01T00:36:30;2.97;;;2.15;;
51927;SDS011;37953;52.806;18.270;2022-08-01T00:38:56;6.70;;;2.47;;
51927;SDS011;37953;52.806;18.270;2022-08-01T00:41:28;6.65;;;2.38;;
51927;SDS011;37953;52.806;18.270;2022-08-01T00:43:54;7.53;;;2.88;;
51927;SDS011;37953;52.806;18.270;2022-08-01T00:46:21;5.90;;;2.50;;
51927;SDS011;37953;52.806;18.270;2022-08-01T00:48:47;6.00;;;2.70;;
51927;SDS011;37953;52.806;18.270;2022-08-01T00:51:13;5.75;;;2.80;;
51927;SDS011;37953;52.806;18.270;2022-08-01T00:53:40;5.90;;;2.67;;
51927;SDS011;37953;52.806;18.270;2022-08-01T00:56:06;6.00;;;2.70;;
51927;SDS011;37953;52.806;18.270;2022-08-01T00:58:32;5.35;;;2.70;;
51927;SDS011;37953;52.806;18.270;2022-08-01T01:00:59;6.95;;;3.08;;
51927;SDS011;37953;52.806;18.270;2022-08-01T01:03:25;5.38;;;2.78;;
51927;SDS011;37953;52.806;18.270;2022-08-01T01:05:55;5.85;;;2.60;;
51927;SDS011;37953;52.806;18.270;2022-08-01T01:08:35;9.95;;;2.60;;
51927;SDS011;37953;52.806;18.270;2022-08-01T01:11:28;6.93;;;2.50;;
51927;SDS011;37953;52.806;18.270;2022-08-01T01:14:04;5.60;;;2.65;;
51927;SDS011;37953;52.806;18.270;2022-08-01T01:16:35;4.60;;;2.60;;
51927;SDS011;37953;52.806;18.270;2022-08-01T01:19:08;5.72;;;3.00;;
51927;SDS011;37953;52.806;18.270;2022-08-01T01:21:47;5.33;;;2.63;;
51927;SDS011;37953;52.806;18.270;2022-08-01T01:24:56;7.78;;;3.10;;
51927;SDS011;37953;52.806;18.270;2022-08-01T01:28:04;6.10;;;3.28;;
51927;SDS011;37953;52.806;18.270;2022-08-01T01:30:55;5.57;;;2.70;;
51927;SDS011;37953;52.806;18.270;2022-08-01T01:33:23;5.32;;;2.80;;
51927;SDS011;37953;52.806;18.270;2022-08-01T01:35:55;4.57;;;3.10;;
51927;SDS011;37953;52.806;18.270;2022-08-01T01:38:28;5.38;;;3.50;;
51927;SDS011;37953;52.806;18.270;2022-08-01T01:43:24;10.50;;;3.95;;
51927;SDS011;37953;52.806;18.270;2022-08-01T01:45:52;7.82;;;3.90;;
51927;SDS011;37953;52.806;18.270;2022-08-01T01:48:20;8.40;;;3.75;;
51927;SDS011;37953;52.806;18.270;2022-08-01T01:50:48;4.28;;;2.88;;
51927;SDS011;37953;52.806;18.270;2022-08-01T01:53:18;6.95;;;3.08;;
51927;SDS011;37953;52.806;18.270;2022-08-01T01:55:47;8.68;;;3.30;;
51927;SDS011;37953;52.806;18.270;2022-08-01T01:58:17;5.53;;;3.15;;
51927;SDS011;37953;52.806;18.270;2022-08-01T02:00:46;6.55;;;3.53;;
51927;SDS011;37953;52.806;18.270;2022-08-01T02:03:20;6.45;;;3.45;;
51927;SDS011;37953;52.806;18.270;2022-08-01T02:05:48;6.90;;;3.38;;
51927;SDS011;37953;52.806;18.270;2022-08-01T02:08:20;5.30;;;3.10;;
51927;SDS011;37953;52.806;18.270;2022-08-01T02:10:49;11.05;;;3.60;;
51927;SDS011;37953;52.806;18.270;2022-08-01T02:13:39;6.28;;;3.55;;
51927;SDS011;37953;52.806;18.270;2022-08-01T02:16:08;8.32;;;3.33;;
51927;SDS011;37953;52.806;18.270;2022-08-01T02:18:36;5.40;;;3.33;;
51927;SDS011;37953;52.806;18.270;2022-08-01T02:21:04;7.97;;;3.60;;
51927;SDS011;37953;52.806;18.270;2022-08-01T02:23:33;5.30;;;3.10;;
51927;SDS011;37953;52.806;18.270;2022-08-01T02:26:02;8.07;;;3.22;;
51927;SDS011;37953;52.806;18.270;2022-08-01T02:28:34;5.60;;;3.15;;
51927;SDS011;37953;52.806;18.270;2022-08-01T02:33:38;7.93;;;3.72;;
51927;SDS011;37953;52.806;18.270;2022-08-01T02:36:07;4.85;;;3.05;;
51927;SDS011;37953;52.806;18.270;2022-08-01T02:38:37;6.30;;;3.15;;
51927;SDS011;37953;52.806;18.270;2022-08-01T02:41:08;5.00;;;2.75;;
51927;SDS011;37953;52.806;18.270;2022-08-01T02:43:38;4.78;;;2.90;;
51927;SDS011;37953;52.806;18.270;2022-08-01T02:46:11;5.63;;;2.90;;
51927;SDS011;37953;52.806;18.270;2022-08-01T02:48:58;7.32;;;3.38;;
51927;SDS011;37953;52.806;18.270;2022-08-01T02:51:26;10.15;;;3.28;;
51927;SDS011;37953;52.806;18.270;2022-08-01T02:53:53;5.20;;;2.95;;
51927;SDS011;37953;52.806;18.270;2022-08-01T02:56:22;6.10;;;3.00;;
51927;SDS011;37953;52.806;18.270;2022-08-01T02:59:04;5.00;;;2.97;;
51927;SDS011;37953;52.806;18.270;2022-08-01T03:01:33;7.65;;;3.30;;
51927;SDS011;37953;52.806;18.270;2022-08-01T03:04:02;5.80;;;2.97;;
51927;SDS011;37953;52.806;18.270;2022-08-01T03:06:30;7.72;;;2.80;;
51927;SDS011;37953;52.806;18.270;2022-08-01T03:08:58;7.38;;;3.00;;
51927;SDS011;37953;52.806;18.270;2022-08-01T03:11:31;5.95;;;3.08;;
51927;SDS011;37953;52.806;18.270;2022-08-01T03:14:01;6.55;;;3.00;;
51927;SDS011;37953;52.806;18.270;2022-08-01T03:16:35;8.25;;;2.80;;
51927;SDS011;37953;52.806;18.270;2022-08-01T03:19:03;5.90;;;2.80;;
51927;SDS011;37953;52.806;18.270;2022-08-01T03:21:37;9.02;;;3.08;;
51927;SDS011;37953;52.806;18.270;2022-08-01T03:24:05;12.57;;;3.38;;
51927;SDS011;37953;52.806;18.270;2022-08-01T03:26:38;6.60;;;2.92;;
51927;SDS011;37953;52.806;18.270;2022-08-01T03:29:08;8.02;;;3.35;;
51927;SDS011;37953;52.806;18.270;2022-08-01T03:31:43;4.70;;;2.92;;
51927;SDS011;37953;52.806;18.270;2022-08-01T03:34:11;9.68;;;3.05;;
51927;SDS011;37953;52.806;18.270;2022-08-01T03:36:42;8.18;;;3.40;;
51927;SDS011;37953;52.806;18.270;2022-08-01T03:39:28;11.25;;;2.88;;
51927;SDS011;37953;52.806;18.270;2022-08-01T03:41:59;8.70;;;3.00;;
51927;SDS011;37953;52.806;18.270;2022-08-01T03:44:30;5.85;;;2.83;;
51927;SDS011;37953;52.806;18.270;2022-08-01T03:47:10;6.60;;;2.60;;
51927;SDS011;37953;52.806;18.270;2022-08-01T03:52:08;5.50;;;2.70;;
51927;SDS011;37953;52.806;18.270;2022-08-01T03:54:36;4.80;;;2.72;;
51927;SDS011;37953;52.806;18.270;2022-08-01T03:57:06;7.35;;;3.20;;
51927;SDS011;37953;52.806;18.270;2022-08-01T03:59:34;8.77;;;3.35;;
51927;SDS011;37953;52.806;18.270;2022-08-01T04:02:07;18.33;;;3.67;;
51927;SDS011;37953;52.806;18.270;2022-08-01T04:04:33;7.68;;;3.75;;
51927;SDS011;37953;52.806;18.270;2022-08-01T04:07:00;9.15;;;3.53;;
51927;SDS011;37953;52.806;18.270;2022-08-01T04:09:32;12.43;;;4.05;;
51927;SDS011;37953;52.806;18.270;2022-08-01T04:12:00;10.05;;;3.92;;
51927;SDS011;37953;52.806;18.270;2022-08-01T04:14:27;12.60;;;3.97;;
51927;SDS011;37953;52.806;18.270;2022-08-01T04:16:54;9.23;;;3.95;;
51927;SDS011;37953;52.806;18.270;2022-08-01T04:19:20;8.60;;;4.15;;
51927;SDS011;37953;52.806;18.270;2022-08-01T04:21:46;9.38;;;4.43;;
51927;SDS011;37953;52.806;18.270;2022-08-01T04:24:15;6.88;;;3.70;;
51927;SDS011;37953;52.806;18.270;2022-08-01T04:26:43;9.15;;;4.60;;
51927;SDS011;37953;52.806;18.270;2022-08-01T04:29:10;9.95;;;4.68;;
51927;SDS011;37953;52.806;18.270;2022-08-01T04:31:40;7.65;;;4.50;;
51927;SDS011;37953;52.806;18.270;2022-08-01T04:34:09;10.30;;;4.80;;
51927;SDS011;37953;52.806;18.270;2022-08-01T04:36:39;9.60;;;4.57;;
51927;SDS011;37953;52.806;18.270;2022-08-01T04:39:07;9.02;;;4.65;;
51927;SDS011;37953;52.806;18.270;2022-08-01T04:41:34;11.93;;;4.43;;
51927;SDS011;37953;52.806;18.270;2022-08-01T04:44:02;8.40;;;4.90;;
51927;SDS011;37953;52.806;18.270;2022-08-01T04:46:28;17.60;;;6.95;;
51927;SDS011;37953;52.806;18.270;2022-08-01T04:48:55;22.85;;;7.55;;
51927;SDS011;37953;52.806;18.270;2022-08-01T04:51:27;17.38;;;6.88;;
51927;SDS011;37953;52.806;18.270;2022-08-01T04:53:53;16.35;;;6.35;;
51927;SDS011;37953;52.806;18.270;2022-08-01T04:56:20;14.57;;;5.57;;
51927;SDS011;37953;52.806;18.270;2022-08-01T04:58:46;11.73;;;4.50;;
51927;SDS011;37953;52.806;18.270;2022-08-01T05:01:13;8.32;;;3.50;;
51927;SDS011;37953;52.806;18.270;2022-08-01T05:03:39;9.02;;;3.83;;
51927;SDS011;37953;52.806;18.270;2022-08-01T05:06:05;11.55;;;3.47;;
51927;SDS011;37953;52.806;18.270;2022-08-01T05:08:32;10.43;;;4.45;;
51927;SDS011;37953;52.806;18.270;2022-08-01T05:10:58;14.45;;;5.32;;
51927;SDS011;37953;52.806;18.270;2022-08-01T05:13:24;9.65;;;4.82;;
51927;SDS011;37953;52.806;18.270;2022-08-01T05:15:51;14.02;;;5.20;;
51927;SDS011;37953;52.806;18.270;2022-08-01T05:18:23;8.40;;;4.88;;
51927;SDS011;37953;52.806;18.270;2022-08-01T05:20:49;10.35;;;4.93;;
51927;SDS011;37953;52.806;18.270;2022-08-01T05:23:15;8.68;;;4.60;;
51927;SDS011;37953;52.806;18.270;2022-08-01T05:25:41;10.10;;;4.38;;
51927;SDS011;37953;52.806;18.270;2022-08-01T05:28:07;8.05;;;4.20;;
51927;SDS011;37953;52.806;18.270;2022-08-01T05:30:33;8.07;;;4.28;;
51927;SDS011;37953;52.806;18.270;2022-08-01T05:32:59;8.60;;;4.63;;
51927;SDS011;37953;52.806;18.270;2022-08-01T05:35:25;9.88;;;4.30;;
51927;SDS011;37953;52.806;18.270;2022-08-01T05:37:51;8.82;;;4.20;;
51927;SDS011;37953;52.806;18.270;2022-08-01T05:40:17;14.48;;;6.97;;
51927;SDS011;37953;52.806;18.270;2022-08-01T05:42:43;12.55;;;8.18;;
51927;SDS011;37953;52.806;18.270;2022-08-01T05:45:10;11.90;;;9.55;;
51927;SDS011;37953;52.806;18.270;2022-08-01T05:47:36;12.10;;;9.50;;
51927;SDS011;37953;52.806;18.270;2022-08-01T05:50:02;15.00;;;9.30;;
51927;SDS011;37953;52.806;18.270;2022-08-01T05:52:28;18.67;;;7.50;;
51927;SDS011;37953;52.806;18.270;2022-08-01T05:54:54;8.75;;;5.85;;
51927;SDS011;37953;52.806;18.270;2022-08-01T05:57:20;9.38;;;4.60;;
51927;SDS011;37953;52.806;18.270;2022-08-01T05:59:46;14.45;;;4.38;;
51927;SDS011;37953;52.806;18.270;2022-08-01T06:02:12;12.35;;;4.78;;
51927;SDS011;37953;52.806;18.270;2022-08-01T06:04:38;11.82;;;6.07;;
51927;SDS011;37953;52.806;18.270;2022-08-01T06:07:04;11.50;;;5.68;;
51927;SDS011;37953;52.806;18.270;2022-08-01T06:09:30;6.85;;;4.60;;
51927;SDS011;37953;52.806;18.270;2022-08-01T06:11:56;12.20;;;3.88;;
51927;SDS011;37953;52.806;18.270;2022-08-01T06:14:23;7.75;;;3.45;;
51927;SDS011;37953;52.806;18.270;2022-08-01T06:16:49;5.75;;;2.85;;
51927;SDS011;37953;52.806;18.270;2022-08-01T06:19:15;9.02;;;2.45;;
51927;SDS011;37953;52.806;18.270;2022-08-01T06:21:41;4.53;;;2.60;;
51927;SDS011;37953;52.806;18.270;2022-08-01T06:24:07;8.07;;;2.30;;
51927;SDS011;37953;52.806;18.270;2022-08-01T06:26:34;6.70;;;2.60;;
51927;SDS011;37953;52.806;18.270;2022-08-01T06:29:06;6.47;;;2.70;;
51927;SDS011;37953;52.806;18.270;2022-08-01T06:31:39;7.78;;;2.60;;
51927;SDS011;37953;52.806;18.270;2022-08-01T06:34:05;3.75;;;2.70;;
51927;SDS011;37953;52.806;18.270;2022-08-01T06:36:34;7.38;;;2.95;;
51927;SDS011;37953;52.806;18.270;2022-08-01T06:38:59;6.28;;;2.72;;
51927;SDS011;37953;52.806;18.270;2022-08-01T06:41:25;5.63;;;3.00;;
51927;SDS011;37953;52.806;18.270;2022-08-01T06:43:52;6.57;;;2.80;;
51927;SDS011;37953;52.806;18.270;2022-08-01T06:46:18;5.22;;;3.53;;
51927;SDS011;37953;52.806;18.270;2022-08-01T06:48:44;6.50;;;3.25;;
51927;SDS011;37953;52.806;18.270;2022-08-01T06:51:10;6.10;;;3.45;;
51927;SDS011;37953;52.806;18.270;2022-08-01T06:53:39;6.32;;;3.00;;
51927;SDS011;37953;52.806;18.270;2022-08-01T06:56:05;3.88;;;2.90;;
51927;SDS011;37953;52.806;18.270;2022-08-01T06:58:34;4.85;;;2.67;;
51927;SDS011;37953;52.806;18.270;2022-08-01T07:01:06;5.68;;;3.17;;
51927;SDS011;37953;52.806;18.270;2022-08-01T07:03:35;11.38;;;3.45;;
51927;SDS011;37953;52.806;18.270;2022-08-01T07:06:08;6.88;;;3.20;;
51927;SDS011;37953;52.806;18.270;2022-08-01T07:08:34;5.50;;;3.20;;
51927;SDS011;37953;52.806;18.270;2022-08-01T07:11:00;8.20;;;3.17;;
51927;SDS011;37953;52.806;18.270;2022-08-01T07:13:27;6.63;;;3.00;;
51927;SDS011;37953;52.806;18.270;2022-08-01T07:15:53;6.25;;;3.70;;
51927;SDS011;37953;52.806;18.270;2022-08-01T07:18:19;5.70;;;3.47;;
51927;SDS011;37953;52.806;18.270;2022-08-01T07:20:46;5.07;;;3.20;;
51927;SDS011;37953;52.806;18.270;2022-08-01T07:23:12;6.65;;;3.20;;
51927;SDS011;37953;52.806;18.270;2022-08-01T07:25:38;4.97;;;3.30;;
51927;SDS011;37953;52.806;18.270;2022-08-01T07:28:05;8.82;;;3.50;;
51927;SDS011;37953;52.806;18.270;2022-08-01T07:30:30;6.32;;;3.80;;
51927;SDS011;37953;52.806;18.270;2022-08-01T07:32:57;8.65;;;3.33;;
51927;SDS011;37953;52.806;18.270;2022-08-01T07:35:23;8.02;;;3.08;;
51927;SDS011;37953;52.806;18.270;2022-08-01T07:37:49;6.57;;;3.20;;
51927;SDS011;37953;52.806;18.270;2022-08-01T07:40:16;8.48;;;3.13;;
51927;SDS011;37953;52.806;18.270;2022-08-01T07:42:44;6.57;;;3.47;;
51927;SDS011;37953;52.806;18.270;2022-08-01T07:45:10;3.78;;;3.20;;
51927;SDS011;37953;52.806;18.270;2022-08-01T07:47:37;5.53;;;3.58;;
51927;SDS011;37953;52.806;18.270;2022-08-01T07:50:04;4.57;;;3.00;;
51927;SDS011;37953;52.806;18.270;2022-08-01T07:52:31;5.38;;;3.42;;
51927;SDS011;37953;52.806;18.270;2022-08-01T07:54:58;5.57;;;3.45;;
51927;SDS011;37953;52.806;18.270;2022-08-01T07:57:24;4.45;;;3.35;;
51927;SDS011;37953;52.806;18.270;2022-08-01T07:59:51;6.90;;;3.78;;
51927;SDS011;37953;52.806;18.270;2022-08-01T08:02:17;7.53;;;3.20;;
51927;SDS011;37953;52.806;18.270;2022-08-01T08:04:43;6.18;;;3.03;;
51927;SDS011;37953;52.806;18.270;2022-08-01T08:07:09;3.55;;;2.92;;
51927;SDS011;37953;52.806;18.270;2022-08-01T08:09:35;5.32;;;3.00;;
51927;SDS011;37953;52.806;18.270;2022-08-01T08:12:01;5.85;;;2.80;;
51927;SDS011;37953;52.806;18.270;2022-08-01T08:14:27;7.45;;;3.17;;
51927;SDS011;37953;52.806;18.270;2022-08-01T08:16:54;5.10;;;2.85;;
51927;SDS011;37953;52.806;18.270;2022-08-01T08:19:21;4.03;;;2.78;;
51927;SDS011;37953;52.806;18.270;2022-08-01T08:21:47;7.40;;;3.13;;
51927;SDS011;37953;52.806;18.270;2022-08-01T08:24:12;5.68;;;2.90;;
51927;SDS011;37953;52.806;18.270;2022-08-01T08:26:48;4.50;;;2.80;;
51927;SDS011;37953;52.806;18.270;2022-08-01T08:29:27;7.13;;;2.90;;
51927;SDS011;37953;52.806;18.270;2022-08-01T08:31:59;6.43;;;2.70;;
51927;SDS011;37953;52.806;18.270;2022-08-01T08:34:26;4.40;;;2.40;;
51927;SDS011;37953;52.806;18.270;2022-08-01T08:36:53;3.97;;;2.30;;
51927;SDS011;37953;52.806;18.270;2022-08-01T08:39:22;4.85;;;2.92;;
51927;SDS011;37953;52.806;18.270;2022-08-01T08:41:48;7.88;;;3.10;;
51927;SDS011;37953;52.806;18.270;2022-08-01T08:44:15;3.80;;;2.50;;
51927;SDS011;37953;52.806;18.270;2022-08-01T08:46:43;4.28;;;2.15;;
51927;SDS011;37953;52.806;18.270;2022-08-01T08:49:14;5.28;;;2.83;;
51927;SDS011;37953;52.806;18.270;2022-08-01T08:51:42;3.90;;;2.58;;
51927;SDS011;37953;52.806;18.270;2022-08-01T08:54:10;4.55;;;2.25;;
51927;SDS011;37953;52.806;18.270;2022-08-01T08:56:40;4.50;;;2.72;;
51927;SDS011;37953;52.806;18.270;2022-08-01T08:59:07;3.53;;;2.50;;
51927;SDS011;37953;52.806;18.270;2022-08-01T09:01:33;6.78;;;2.78;;
51927;SDS011;37953;52.806;18.270;2022-08-01T09:04:03;5.10;;;2.65;;
51927;SDS011;37953;52.806;18.270;2022-08-01T09:06:29;3.85;;;2.50;;
51927;SDS011;37953;52.806;18.270;2022-08-01T09:08:56;5.78;;;2.65;;
51927;SDS011;37953;52.806;18.270;2022-08-01T09:11:23;4.82;;;2.35;;
51927;SDS011;37953;52.806;18.270;2022-08-01T09:16:34;6.07;;;2.63;;
51927;SDS011;37953;52.806;18.270;2022-08-01T09:21:59;5.55;;;2.50;;
51927;SDS011;37953;52.806;18.270;2022-08-01T09:26:54;4.05;;;2.55;;
51927;SDS011;37953;52.806;18.270;2022-08-01T09:29:25;5.05;;;2.50;;
51927;SDS011;37953;52.806;18.270;2022-08-01T09:31:57;2.70;;;2.40;;
51927;SDS011;37953;52.806;18.270;2022-08-01T09:34:28;5.38;;;2.70;;
51927;SDS011;37953;52.806;18.270;2022-08-01T09:36:59;5.20;;;2.80;;
51927;SDS011;37953;52.806;18.270;2022-08-01T09:41:55;4.97;;;2.70;;
51927;SDS011;37953;52.806;18.270;2022-08-01T09:47:11;5.43;;;3.20;;
51927;SDS011;37953;52.806;18.270;2022-08-01T09:49:39;5.35;;;3.28;;
51927;SDS011;37953;52.806;18.270;2022-08-01T09:52:13;4.28;;;3.00;;
51927;SDS011;37953;52.806;18.270;2022-08-01T09:54:52;6.70;;;3.25;;
51927;SDS011;37953;52.806;18.270;2022-08-01T09:57:26;6.15;;;3.10;;
51927;SDS011;37953;52.806;18.270;2022-08-01T09:59:54;6.05;;;3.60;;
51927;SDS011;37953;52.806;18.270;2022-08-01T10:05:07;5.55;;;3.13;;
51927;SDS011;37953;52.806;18.270;2022-08-01T10:07:36;6.60;;;4.20;;
51927;SDS011;37953;52.806;18.270;2022-08-01T10:10:29;6.65;;;4.25;;
51927;SDS011;37953;52.806;18.270;2022-08-01T10:12:57;6.63;;;4.20;;
51927;SDS011;37953;52.806;18.270;2022-08-01T10:15:25;6.43;;;3.83;;
51927;SDS011;37953;52.806;18.270;2022-08-01T10:17:56;6.40;;;3.88;;
51927;SDS011;37953;52.806;18.270;2022-08-01T10:20:24;6.90;;;3.80;;
51927;SDS011;37953;52.806;18.270;2022-08-01T10:23:00;5.53;;;3.42;;
51927;SDS011;37953;52.806;18.270;2022-08-01T10:25:28;7.47;;;4.00;;
51927;SDS011;37953;52.806;18.270;2022-08-01T10:27:59;7.68;;;3.80;;
51927;SDS011;37953;52.806;18.270;2022-08-01T10:30:32;5.07;;;3.70;;
51927;SDS011;37953;52.806;18.270;2022-08-01T10:32:59;6.85;;;3.92;;
51927;SDS011;37953;52.806;18.270;2022-08-01T10:35:26;8.63;;;3.83;;
51927;SDS011;37953;52.806;18.270;2022-08-01T10:37:53;6.25;;;3.38;;
51927;SDS011;37953;52.806;18.270;2022-08-01T10:40:23;6.57;;;3.55;;
51927;SDS011;37953;52.806;18.270;2022-08-01T10:42:49;4.65;;;3.35;;
51927;SDS011;37953;52.806;18.270;2022-08-01T10:45:17;10.00;;;3.25;;
51927;SDS011;37953;52.806;18.270;2022-08-01T10:50:42;7.00;;;3.47;;
51927;SDS011;37953;52.806;18.270;2022-08-01T10:53:13;3.95;;;3.08;;
51927;SDS011;37953;52.806;18.270;2022-08-01T11:03:46;4.50;;;3.20;;
51927;SDS011;37953;52.806;18.270;2022-08-01T11:06:24;6.03;;;3.22;;
51927;SDS011;37953;52.806;18.270;2022-08-01T11:14:27;3.40;;;2.88;;
51927;SDS011;37953;52.806;18.270;2022-08-01T11:16:55;4.57;;;3.08;;
51927;SDS011;37953;52.806;18.270;2022-08-01T11:19:22;6.47;;;3.17;;
51927;SDS011;37953;52.806;18.270;2022-08-01T11:22:14;4.35;;;3.00;;
51927;SDS011;37953;52.806;18.270;2022-08-01T11:30:21;5.07;;;3.50;;
51927;SDS011;37953;52.806;18.270;2022-08-01T11:35:21;7.30;;;3.47;;
51927;SDS011;37953;52.806;18.270;2022-08-01T11:37:50;5.32;;;3.10;;
51927;SDS011;37953;52.806;18.270;2022-08-01T11:45:54;4.30;;;3.08;;
51927;SDS011;37953;52.806;18.270;2022-08-01T11:48:22;3.97;;;2.80;;
51927;SDS011;37953;52.806;18.270;2022-08-01T11:50:52;4.28;;;3.08;;
51927;SDS011;37953;52.806;18.270;2022-08-01T11:53:20;4.60;;;3.10;;
51927;SDS011;37953;52.806;18.270;2022-08-01T11:55:53;6.03;;;2.70;;
51927;SDS011;37953;52.806;18.270;2022-08-01T11:58:24;3.92;;;2.90;;
51927;SDS011;37953;52.806;18.270;2022-08-01T12:00:56;4.32;;;2.90;;
51927;SDS011;37953;52.806;18.270;2022-08-01T12:03:27;4.35;;;2.97;;
51927;SDS011;37953;52.806;18.270;2022-08-01T12:05:55;3.58;;;2.63;;
51927;SDS011;37953;52.806;18.270;2022-08-01T12:08:29;3.35;;;2.50;;
51927;SDS011;37953;52.806;18.270;2022-08-01T12:11:01;9.68;;;2.78;;
51927;SDS011;37953;52.806;18.270;2022-08-01T12:13:42;3.65;;;2.80;;
51927;SDS011;37953;52.806;18.270;2022-08-01T12:16:08;4.28;;;2.50;;
51927;SDS011;37953;52.806;18.270;2022-08-01T12:18:40;3.50;;;2.50;;
51927;SDS011;37953;52.806;18.270;2022-08-01T12:21:06;4.78;;;2.38;;
51927;SDS011;37953;52.806;18.270;2022-08-01T12:23:32;3.70;;;2.33;;
51927;SDS011;37953;52.806;18.270;2022-08-01T12:26:00;3.40;;;2.30;;
51927;SDS011;37953;52.806;18.270;2022-08-01T12:28:26;4.38;;;2.70;;
51927;SDS011;37953;52.806;18.270;2022-08-01T12:30:52;5.10;;;2.28;;
51927;SDS011;37953;52.806;18.270;2022-08-01T12:33:19;3.70;;;1.90;;
51927;SDS011;37953;52.806;18.270;2022-08-01T12:35:46;4.28;;;2.22;;
51927;SDS011;37953;52.806;18.270;2022-08-01T12:38:16;4.20;;;2.40;;
51927;SDS011;37953;52.806;18.270;2022-08-01T12:40:45;3.65;;;2.40;;
51927;SDS011;37953;52.806;18.270;2022-08-01T12:43:16;4.63;;;2.58;;
51927;SDS011;37953;52.806;18.270;2022-08-01T12:45:44;8.07;;;2.67;;
51927;SDS011;37953;52.806;18.270;2022-08-01T12:48:13;5.75;;;2.60;;
51927;SDS011;37953;52.806;18.270;2022-08-01T12:50:47;3.88;;;2.53;;
51927;SDS011;37953;52.806;18.270;2022-08-01T12:53:15;4.57;;;2.90;;
51927;SDS011;37953;52.806;18.270;2022-08-01T12:55:49;2.88;;;2.17;;
51927;SDS011;37953;52.806;18.270;2022-08-01T12:58:16;4.18;;;2.63;;
51927;SDS011;37953;52.806;18.270;2022-08-01T13:00:47;2.90;;;2.13;;
51927;SDS011;37953;52.806;18.270;2022-08-01T13:03:20;3.13;;;2.40;;
51927;SDS011;37953;52.806;18.270;2022-08-01T13:05:47;4.35;;;2.17;;
51927;SDS011;37953;52.806;18.270;2022-08-01T13:08:22;2.97;;;2.30;;
51927;SDS011;37953;52.806;18.270;2022-08-01T13:11:08;3.70;;;2.30;;
51927;SDS011;37953;52.806;18.270;2022-08-01T13:13:46;3.25;;;2.28;;
51927;SDS011;37953;52.806;18.270;2022-08-01T13:16:14;4.50;;;2.33;;
51927;SDS011;37953;52.806;18.270;2022-08-01T13:18:47;4.97;;;2.17;;
51927;SDS011;37953;52.806;18.270;2022-08-01T13:21:19;4.18;;;2.50;;
51927;SDS011;37953;52.806;18.270;2022-08-01T13:26:42;7.03;;;2.60;;
51927;SDS011;37953;52.806;18.270;2022-08-01T13:29:13;2.53;;;2.00;;
51927;SDS011;37953;52.806;18.270;2022-08-01T13:31:43;3.45;;;2.33;;
51927;SDS011;37953;52.806;18.270;2022-08-01T13:34:10;3.78;;;2.20;;
51927;SDS011;37953;52.806;18.270;2022-08-01T13:36:37;7.40;;;2.30;;
51927;SDS011;37953;52.806;18.270;2022-08-01T13:39:04;5.82;;;2.58;;
51927;SDS011;37953;52.806;18.270;2022-08-01T13:41:54;3.25;;;2.40;;
51927;SDS011;37953;52.806;18.270;2022-08-01T13:44:21;4.18;;;2.63;;
51927;SDS011;37953;52.806;18.270;2022-08-01T13:46:47;5.55;;;2.45;;
51927;SDS011;37953;52.806;18.270;2022-08-01T13:49:13;3.10;;;2.20;;
51927;SDS011;37953;52.806;18.270;2022-08-01T13:51:39;3.13;;;2.33;;
51927;SDS011;37953;52.806;18.270;2022-08-01T13:54:08;3.53;;;2.30;;
51927;SDS011;37953;52.806;18.270;2022-08-01T13:56:34;3.58;;;2.22;;
51927;SDS011;37953;52.806;18.270;2022-08-01T13:59:01;3.63;;;2.40;;
51927;SDS011;37953;52.806;18.270;2022-08-01T14:01:28;5.00;;;2.50;;
51927;SDS011;37953;52.806;18.270;2022-08-01T14:03:54;5.15;;;2.63;;
51927;SDS011;37953;52.806;18.270;2022-08-01T14:06:20;7.57;;;2.72;;
51927;SDS011;37953;52.806;18.270;2022-08-01T14:08:47;4.28;;;2.53;;
51927;SDS011;37953;52.806;18.270;2022-08-01T14:11:14;6.47;;;2.97;;
51927;SDS011;37953;52.806;18.270;2022-08-01T14:13:41;4.15;;;2.35;;
51927;SDS011;37953;52.806;18.270;2022-08-01T14:16:07;4.43;;;2.55;;
51927;SDS011;37953;52.806;18.270;2022-08-01T14:18:33;3.30;;;2.70;;
51927;SDS011;37953;52.806;18.270;2022-08-01T14:20:59;5.97;;;3.00;;
51927;SDS011;37953;52.806;18.270;2022-08-01T14:23:25;3.10;;;2.67;;
51927;SDS011;37953;52.806;18.270;2022-08-01T14:25:52;5.75;;;2.55;;
51927;SDS011;37953;52.806;18.270;2022-08-01T14:28:19;3.28;;;2.40;;
51927;SDS011;37953;52.806;18.270;2022-08-01T14:30:45;3.42;;;2.33;;
51927;SDS011;37953;52.806;18.270;2022-08-01T14:33:11;5.20;;;2.63;;
51927;SDS011;37953;52.806;18.270;2022-08-01T14:35:39;4.75;;;2.70;;
51927;SDS011;37953;52.806;18.270;2022-08-01T14:38:05;6.80;;;2.95;;
51927;SDS011;37953;52.806;18.270;2022-08-01T14:40:33;4.15;;;2.67;;
51927;SDS011;37953;52.806;18.270;2022-08-01T14:42:59;5.28;;;2.58;;
51927;SDS011;37953;52.806;18.270;2022-08-01T14:45:29;5.45;;;2.80;;
51927;SDS011;37953;52.806;18.270;2022-08-01T14:47:55;5.80;;;2.80;;
51927;SDS011;37953;52.806;18.270;2022-08-01T14:50:21;4.72;;;2.70;;
51927;SDS011;37953;52.806;18.270;2022-08-01T14:52:49;4.95;;;2.53;;
51927;SDS011;37953;52.806;18.270;2022-08-01T14:55:15;4.45;;;2.70;;
51927;SDS011;37953;52.806;18.270;2022-08-01T14:57:41;4.03;;;2.58;;
51927;SDS011;37953;52.806;18.270;2022-08-01T15:00:10;5.75;;;2.60;;
51927;SDS011;37953;52.806;18.270;2022-08-01T15:02:39;4.45;;;2.60;;
51927;SDS011;37953;52.806;18.270;2022-08-01T15:05:06;3.58;;;2.60;;
51927;SDS011;37953;52.806;18.270;2022-08-01T15:07:34;4.47;;;2.70;;
51927;SDS011;37953;52.806;18.270;2022-08-01T15:10:00;4.25;;;2.38;;
51927;SDS011;37953;52.806;18.270;2022-08-01T15:12:26;3.58;;;2.38;;
51927;SDS011;37953;52.806;18.270;2022-08-01T15:14:52;5.40;;;2.50;;
51927;SDS011;37953;52.806;18.270;2022-08-01T15:17:19;5.65;;;2.47;;
51927;SDS011;37953;52.806;18.270;2022-08-01T15:19:48;3.78;;;2.33;;
51927;SDS011;37953;52.806;18.270;2022-08-01T15:22:16;5.43;;;2.40;;
51927;SDS011;37953;52.806;18.270;2022-08-01T15:24:49;3.35;;;2.10;;
51927;SDS011;37953;52.806;18.270;2022-08-01T15:27:16;8.50;;;2.45;;
51927;SDS011;37953;52.806;18.270;2022-08-01T15:29:43;3.25;;;2.20;;
51927;SDS011;37953;52.806;18.270;2022-08-01T15:32:09;5.55;;;2.40;;
51927;SDS011;37953;52.806;18.270;2022-08-01T15:34:36;3.80;;;2.30;;
51927;SDS011;37953;52.806;18.270;2022-08-01T15:37:09;6.88;;;2.63;;
51927;SDS011;37953;52.806;18.270;2022-08-01T15:39:36;4.45;;;2.50;;
51927;SDS011;37953;52.806;18.270;2022-08-01T15:42:21;6.07;;;2.58;;